sensor_id;sensor_type;location;lat;lon;timestamp;P1;durP1;ratioP1;P2;durP2;ratioP2
68353;SDS011;55274;43.060;25.618;2023-04-24T00:00:03;10.38;;;3.60;;
68353;SDS011;55274;43.060;25.618;2023-04-24T00:02:37;13.75;;;3.60;;
68353;SDS011;55274;43.060;25.618;2023-04-24T00:05:04;13.73;;;3.45;;
68353;SDS011;55274;43.060;25.618;2023-04-24T00:07:30;10.65;;;3.20;;
68353;SDS011;55274;43.060;25.618;2023-04-24T00:09:56;5.13;;;3.35;;
68353;SDS011;55274;43.060;25.618;2023-04-24T00:12:22;6.30;;;3.30;;
68353;SDS011;55274;43.060;25.618;2023-04-24T00:14:48;5.45;;;3.05;;
68353;SDS011;55274;43.060;25.618;2023-04-24T00:17:14;6.65;;;3.28;;
68353;SDS011;55274;43.060;25.618;2023-04-24T00:19:40;7.32;;;3.30;;
68353;SDS011;55274;43.060;25.618;2023-04-24T00:22:06;5.35;;;3.00;;
68353;SDS011;55274;43.060;25.618;2023-04-24T00:24:32;10.75;;;3.63;;
68353;SDS011;55274;43.060;25.618;2023-04-24T00:26:58;5.82;;;3.53;;
68353;SDS011;55274;43.060;25.618;2023-04-24T00:29:25;7.28;;;3.20;;
68353;SDS011;55274;43.060;25.618;2023-04-24T00:31:51;7.60;;;3.80;;
68353;SDS011;55274;43.060;25.618;2023-04-24T00:34:17;6.70;;;3.35;;
68353;SDS011;55274;43.060;25.618;2023-04-24T00:36:43;4.95;;;3.17;;
68353;SDS011;55274;43.060;25.618;2023-04-24T00:39:09;7.80;;;3.80;;
68353;SDS011;55274;43.060;25.618;2023-04-24T00:41:35;8.85;;;3.78;;
68353;SDS011;55274;43.060;25.618;2023-04-24T00:44:01;7.93;;;3.55;;
68353;SDS011;55274;43.060;25.618;2023-04-24T00:46:27;7.50;;;3.15;;
68353;SDS011;55274;43.060;25.618;2023-04-24T00:48:52;8.50;;;3.47;;
68353;SDS011;55274;43.060;25.618;2023-04-24T00:51:18;10.38;;;3.85;;
68353;SDS011;55274;43.060;25.618;2023-04-24T00:53:45;7.07;;;3.90;;
68353;SDS011;55274;43.060;25.618;2023-04-24T00:56:10;8.70;;;3.83;;
68353;SDS011;55274;43.060;25.618;2023-04-24T00:58:36;7.45;;;4.05;;
68353;SDS011;55274;43.060;25.618;2023-04-24T01:01:02;10.82;;;3.75;;
68353;SDS011;55274;43.060;25.618;2023-04-24T01:03:32;8.93;;;3.85;;
68353;SDS011;55274;43.060;25.618;2023-04-24T01:05:58;9.93;;;3.40;;
68353;SDS011;55274;43.060;25.618;2023-04-24T01:08:24;9.38;;;3.72;;
68353;SDS011;55274;43.060;25.618;2023-04-24T01:10:53;6.97;;;3.65;;
68353;SDS011;55274;43.060;25.618;2023-04-24T01:13:20;9.80;;;4.13;;
68353;SDS011;55274;43.060;25.618;2023-04-24T01:15:46;8.05;;;3.55;;
68353;SDS011;55274;43.060;25.618;2023-04-24T01:18:13;7.88;;;3.70;;
68353;SDS011;55274;43.060;25.618;2023-04-24T01:20:41;11.05;;;4.15;;
68353;SDS011;55274;43.060;25.618;2023-04-24T01:23:09;6.50;;;3.35;;
68353;SDS011;55274;43.060;25.618;2023-04-24T01:25:35;9.50;;;3.97;;
68353;SDS011;55274;43.060;25.618;2023-04-24T01:28:02;8.20;;;3.53;;
68353;SDS011;55274;43.060;25.618;2023-04-24T01:30:28;6.28;;;3.97;;
68353;SDS011;55274;43.060;25.618;2023-04-24T01:32:55;5.97;;;3.58;;
68353;SDS011;55274;43.060;25.618;2023-04-24T01:35:21;25.35;;;5.53;;
68353;SDS011;55274;43.060;25.618;2023-04-24T01:37:47;18.60;;;4.50;;
68353;SDS011;55274;43.060;25.618;2023-04-24T01:40:12;9.30;;;4.07;;
68353;SDS011;55274;43.060;25.618;2023-04-24T01:42:40;6.45;;;4.00;;
68353;SDS011;55274;43.060;25.618;2023-04-24T01:45:07;8.15;;;3.22;;
68353;SDS011;55274;43.060;25.618;2023-04-24T01:47:36;7.03;;;3.50;;
68353;SDS011;55274;43.060;25.618;2023-04-24T01:50:03;7.03;;;3.97;;
68353;SDS011;55274;43.060;25.618;2023-04-24T01:52:29;24.77;;;4.78;;
68353;SDS011;55274;43.060;25.618;2023-04-24T01:55:01;11.35;;;3.60;;
68353;SDS011;55274;43.060;25.618;2023-04-24T01:57:31;14.30;;;3.92;;
68353;SDS011;55274;43.060;25.618;2023-04-24T01:59:57;7.28;;;3.47;;
68353;SDS011;55274;43.060;25.618;2023-04-24T02:02:23;7.43;;;3.40;;
68353;SDS011;55274;43.060;25.618;2023-04-24T02:04:55;7.38;;;3.58;;
68353;SDS011;55274;43.060;25.618;2023-04-24T02:07:21;7.80;;;3.95;;
68353;SDS011;55274;43.060;25.618;2023-04-24T02:09:47;9.30;;;3.58;;
68353;SDS011;55274;43.060;25.618;2023-04-24T02:12:13;8.00;;;3.08;;
68353;SDS011;55274;43.060;25.618;2023-04-24T02:14:45;5.47;;;3.50;;
68353;SDS011;55274;43.060;25.618;2023-04-24T02:17:11;11.13;;;4.18;;
68353;SDS011;55274;43.060;25.618;2023-04-24T02:19:38;9.05;;;3.53;;
68353;SDS011;55274;43.060;25.618;2023-04-24T02:22:04;9.98;;;3.42;;
68353;SDS011;55274;43.060;25.618;2023-04-24T02:24:30;10.45;;;3.30;;
68353;SDS011;55274;43.060;25.618;2023-04-24T02:26:55;10.32;;;3.67;;
68353;SDS011;55274;43.060;25.618;2023-04-24T02:29:22;9.75;;;3.55;;
68353;SDS011;55274;43.060;25.618;2023-04-24T02:31:48;8.35;;;4.00;;
68353;SDS011;55274;43.060;25.618;2023-04-24T02:34:14;5.90;;;3.50;;
68353;SDS011;55274;43.060;25.618;2023-04-24T02:36:41;6.82;;;3.55;;
68353;SDS011;55274;43.060;25.618;2023-04-24T02:39:07;8.63;;;4.00;;
68353;SDS011;55274;43.060;25.618;2023-04-24T02:41:33;6.03;;;3.40;;
68353;SDS011;55274;43.060;25.618;2023-04-24T02:43:59;9.73;;;3.85;;
68353;SDS011;55274;43.060;25.618;2023-04-24T02:46:25;17.80;;;4.65;;
68353;SDS011;55274;43.060;25.618;2023-04-24T02:48:51;17.33;;;5.80;;
68353;SDS011;55274;43.060;25.618;2023-04-24T02:51:16;12.05;;;3.75;;
68353;SDS011;55274;43.060;25.618;2023-04-24T02:53:42;10.63;;;4.28;;
68353;SDS011;55274;43.060;25.618;2023-04-24T02:56:08;15.60;;;4.57;;
68353;SDS011;55274;43.060;25.618;2023-04-24T02:58:37;11.57;;;3.80;;
68353;SDS011;55274;43.060;25.618;2023-04-24T03:01:03;9.02;;;4.15;;
68353;SDS011;55274;43.060;25.618;2023-04-24T03:03:29;7.95;;;3.58;;
68353;SDS011;55274;43.060;25.618;2023-04-24T03:05:55;8.45;;;4.05;;
68353;SDS011;55274;43.060;25.618;2023-04-24T03:08:22;16.23;;;4.93;;
68353;SDS011;55274;43.060;25.618;2023-04-24T03:10:48;32.28;;;5.00;;
68353;SDS011;55274;43.060;25.618;2023-04-24T03:13:15;10.70;;;3.88;;
68353;SDS011;55274;43.060;25.618;2023-04-24T03:15:41;14.32;;;4.10;;
68353;SDS011;55274;43.060;25.618;2023-04-24T03:18:06;24.02;;;4.82;;
68353;SDS011;55274;43.060;25.618;2023-04-24T03:20:32;7.20;;;3.30;;
68353;SDS011;55274;43.060;25.618;2023-04-24T03:22:58;9.77;;;4.05;;
68353;SDS011;55274;43.060;25.618;2023-04-24T03:25:24;11.43;;;3.55;;
68353;SDS011;55274;43.060;25.618;2023-04-24T03:27:50;15.48;;;4.38;;
68353;SDS011;55274;43.060;25.618;2023-04-24T03:30:16;16.20;;;5.53;;
68353;SDS011;55274;43.060;25.618;2023-04-24T03:32:42;15.32;;;5.40;;
68353;SDS011;55274;43.060;25.618;2023-04-24T03:35:08;15.18;;;5.93;;
68353;SDS011;55274;43.060;25.618;2023-04-24T03:37:34;7.18;;;3.63;;
68353;SDS011;55274;43.060;25.618;2023-04-24T03:40:00;10.25;;;3.65;;
68353;SDS011;55274;43.060;25.618;2023-04-24T03:42:26;10.55;;;3.97;;
68353;SDS011;55274;43.060;25.618;2023-04-24T03:44:52;22.15;;;4.43;;
68353;SDS011;55274;43.060;25.618;2023-04-24T03:47:18;14.90;;;4.18;;
68353;SDS011;55274;43.060;25.618;2023-04-24T03:49:44;11.32;;;3.83;;
68353;SDS011;55274;43.060;25.618;2023-04-24T03:52:10;25.13;;;5.25;;
68353;SDS011;55274;43.060;25.618;2023-04-24T03:54:36;18.65;;;4.13;;
68353;SDS011;55274;43.060;25.618;2023-04-24T03:57:01;21.30;;;4.45;;
68353;SDS011;55274;43.060;25.618;2023-04-24T03:59:28;32.05;;;5.70;;
68353;SDS011;55274;43.060;25.618;2023-04-24T04:01:54;29.02;;;5.60;;
68353;SDS011;55274;43.060;25.618;2023-04-24T04:04:20;117.70;;;11.40;;
68353;SDS011;55274;43.060;25.618;2023-04-24T04:06:45;24.35;;;4.80;;
68353;SDS011;55274;43.060;25.618;2023-04-24T04:09:11;14.45;;;3.50;;
68353;SDS011;55274;43.060;25.618;2023-04-24T04:11:37;9.80;;;3.80;;
68353;SDS011;55274;43.060;25.618;2023-04-24T04:14:03;12.20;;;3.72;;
68353;SDS011;55274;43.060;25.618;2023-04-24T04:16:29;9.07;;;3.78;;
68353;SDS011;55274;43.060;25.618;2023-04-24T04:18:55;13.63;;;4.15;;
68353;SDS011;55274;43.060;25.618;2023-04-24T04:21:21;18.50;;;4.90;;
68353;SDS011;55274;43.060;25.618;2023-04-24T04:23:46;33.60;;;5.07;;
68353;SDS011;55274;43.060;25.618;2023-04-24T04:26:13;40.45;;;6.40;;
68353;SDS011;55274;43.060;25.618;2023-04-24T04:28:39;29.13;;;5.88;;
68353;SDS011;55274;43.060;25.618;2023-04-24T04:31:04;13.88;;;4.18;;
68353;SDS011;55274;43.060;25.618;2023-04-24T04:33:32;17.08;;;4.50;;
68353;SDS011;55274;43.060;25.618;2023-04-24T04:35:59;21.70;;;5.60;;
68353;SDS011;55274;43.060;25.618;2023-04-24T04:38:25;15.65;;;4.82;;
68353;SDS011;55274;43.060;25.618;2023-04-24T04:40:55;21.42;;;4.53;;
68353;SDS011;55274;43.060;25.618;2023-04-24T04:43:24;31.08;;;6.15;;
68353;SDS011;55274;43.060;25.618;2023-04-24T04:45:50;15.57;;;4.18;;
68353;SDS011;55274;43.060;25.618;2023-04-24T04:48:16;23.45;;;4.43;;
68353;SDS011;55274;43.060;25.618;2023-04-24T04:50:43;14.18;;;3.70;;
68353;SDS011;55274;43.060;25.618;2023-04-24T04:53:10;12.40;;;4.22;;
68353;SDS011;55274;43.060;25.618;2023-04-24T04:55:36;22.35;;;4.97;;
68353;SDS011;55274;43.060;25.618;2023-04-24T04:58:02;45.10;;;7.05;;
68353;SDS011;55274;43.060;25.618;2023-04-24T05:00:28;14.32;;;4.85;;
68353;SDS011;55274;43.060;25.618;2023-04-24T05:02:58;20.75;;;6.15;;
68353;SDS011;55274;43.060;25.618;2023-04-24T05:05:25;26.48;;;8.52;;
68353;SDS011;55274;43.060;25.618;2023-04-24T05:07:51;32.08;;;9.27;;
68353;SDS011;55274;43.060;25.618;2023-04-24T05:10:16;25.10;;;9.73;;
68353;SDS011;55274;43.060;25.618;2023-04-24T05:12:42;34.80;;;15.25;;
68353;SDS011;55274;43.060;25.618;2023-04-24T05:15:08;46.67;;;13.73;;
68353;SDS011;55274;43.060;25.618;2023-04-24T05:17:34;34.03;;;12.75;;
68353;SDS011;55274;43.060;25.618;2023-04-24T05:20:01;70.68;;;27.83;;
68353;SDS011;55274;43.060;25.618;2023-04-24T05:22:30;60.75;;;27.67;;
68353;SDS011;55274;43.060;25.618;2023-04-24T05:24:56;48.53;;;21.02;;
68353;SDS011;55274;43.060;25.618;2023-04-24T05:27:22;54.90;;;16.30;;
68353;SDS011;55274;43.060;25.618;2023-04-24T05:29:48;52.65;;;15.88;;
68353;SDS011;55274;43.060;25.618;2023-04-24T05:32:14;50.10;;;13.98;;
68353;SDS011;55274;43.060;25.618;2023-04-24T05:34:40;90.10;;;15.35;;
68353;SDS011;55274;43.060;25.618;2023-04-24T05:37:05;39.25;;;12.60;;
68353;SDS011;55274;43.060;25.618;2023-04-24T05:39:34;50.33;;;12.55;;
68353;SDS011;55274;43.060;25.618;2023-04-24T05:42:00;49.63;;;14.15;;
68353;SDS011;55274;43.060;25.618;2023-04-24T05:44:26;38.25;;;12.88;;
68353;SDS011;55274;43.060;25.618;2023-04-24T05:46:52;32.17;;;12.48;;
68353;SDS011;55274;43.060;25.618;2023-04-24T05:49:20;60.88;;;13.98;;
68353;SDS011;55274;43.060;25.618;2023-04-24T05:51:46;44.55;;;12.55;;
68353;SDS011;55274;43.060;25.618;2023-04-24T05:54:12;43.65;;;12.32;;
68353;SDS011;55274;43.060;25.618;2023-04-24T05:56:38;40.00;;;9.75;;
68353;SDS011;55274;43.060;25.618;2023-04-24T05:59:04;43.10;;;10.20;;
68353;SDS011;55274;43.060;25.618;2023-04-24T06:01:31;33.60;;;8.30;;
68353;SDS011;55274;43.060;25.618;2023-04-24T06:03:57;12.23;;;5.28;;
68353;SDS011;55274;43.060;25.618;2023-04-24T06:06:23;23.58;;;7.47;;
68353;SDS011;55274;43.060;25.618;2023-04-24T06:08:49;23.30;;;8.43;;
68353;SDS011;55274;43.060;25.618;2023-04-24T06:11:15;28.15;;;9.48;;
68353;SDS011;55274;43.060;25.618;2023-04-24T06:13:41;33.42;;;8.82;;
68353;SDS011;55274;43.060;25.618;2023-04-24T06:16:07;40.20;;;8.85;;
68353;SDS011;55274;43.060;25.618;2023-04-24T06:18:33;19.08;;;8.50;;
68353;SDS011;55274;43.060;25.618;2023-04-24T06:20:58;37.58;;;8.57;;
68353;SDS011;55274;43.060;25.618;2023-04-24T06:23:24;18.00;;;6.95;;
68353;SDS011;55274;43.060;25.618;2023-04-24T06:25:50;16.10;;;6.53;;
68353;SDS011;55274;43.060;25.618;2023-04-24T06:28:16;11.43;;;5.75;;
68353;SDS011;55274;43.060;25.618;2023-04-24T06:30:42;12.85;;;5.65;;
68353;SDS011;55274;43.060;25.618;2023-04-24T06:33:08;13.80;;;5.90;;
68353;SDS011;55274;43.060;25.618;2023-04-24T06:35:35;10.25;;;4.80;;
68353;SDS011;55274;43.060;25.618;2023-04-24T06:38:01;17.25;;;5.43;;
68353;SDS011;55274;43.060;25.618;2023-04-24T06:40:27;11.85;;;4.15;;
68353;SDS011;55274;43.060;25.618;2023-04-24T06:42:52;11.25;;;4.03;;
68353;SDS011;55274;43.060;25.618;2023-04-24T06:45:18;8.75;;;3.67;;
68353;SDS011;55274;43.060;25.618;2023-04-24T06:47:44;7.68;;;3.83;;
68353;SDS011;55274;43.060;25.618;2023-04-24T06:50:10;13.40;;;3.67;;
68353;SDS011;55274;43.060;25.618;2023-04-24T06:52:36;7.60;;;3.33;;
68353;SDS011;55274;43.060;25.618;2023-04-24T06:55:02;5.10;;;2.60;;
68353;SDS011;55274;43.060;25.618;2023-04-24T06:57:29;15.63;;;2.95;;
68353;SDS011;55274;43.060;25.618;2023-04-24T06:59:55;8.95;;;3.22;;
68353;SDS011;55274;43.060;25.618;2023-04-24T07:02:21;8.82;;;3.05;;
68353;SDS011;55274;43.060;25.618;2023-04-24T07:04:47;8.88;;;2.30;;
68353;SDS011;55274;43.060;25.618;2023-04-24T07:07:13;10.52;;;2.70;;
68353;SDS011;55274;43.060;25.618;2023-04-24T07:09:39;6.97;;;2.78;;
68353;SDS011;55274;43.060;25.618;2023-04-24T07:12:10;8.00;;;4.22;;
68353;SDS011;55274;43.060;25.618;2023-04-24T07:14:37;4.95;;;2.60;;
68353;SDS011;55274;43.060;25.618;2023-04-24T07:17:03;6.63;;;2.60;;
68353;SDS011;55274;43.060;25.618;2023-04-24T07:19:30;6.63;;;2.78;;
68353;SDS011;55274;43.060;25.618;2023-04-24T07:21:56;5.88;;;2.30;;
68353;SDS011;55274;43.060;25.618;2023-04-24T07:24:23;5.70;;;2.92;;
68353;SDS011;55274;43.060;25.618;2023-04-24T07:26:50;5.28;;;2.63;;
68353;SDS011;55274;43.060;25.618;2023-04-24T07:29:17;5.90;;;2.70;;
68353;SDS011;55274;43.060;25.618;2023-04-24T07:31:43;35.85;;;8.25;;
68353;SDS011;55274;43.060;25.618;2023-04-24T07:34:09;12.07;;;3.08;;
68353;SDS011;55274;43.060;25.618;2023-04-24T07:36:35;10.75;;;2.92;;
68353;SDS011;55274;43.060;25.618;2023-04-24T07:39:03;7.22;;;3.00;;
68353;SDS011;55274;43.060;25.618;2023-04-24T07:41:29;5.05;;;2.20;;
68353;SDS011;55274;43.060;25.618;2023-04-24T07:43:55;3.88;;;2.33;;
68353;SDS011;55274;43.060;25.618;2023-04-24T07:46:21;5.10;;;2.25;;
68353;SDS011;55274;43.060;25.618;2023-04-24T07:48:48;7.95;;;3.38;;
68353;SDS011;55274;43.060;25.618;2023-04-24T07:51:14;15.02;;;4.60;;
68353;SDS011;55274;43.060;25.618;2023-04-24T07:53:41;96.03;;;12.40;;
68353;SDS011;55274;43.060;25.618;2023-04-24T07:56:08;5.05;;;2.90;;
68353;SDS011;55274;43.060;25.618;2023-04-24T07:58:34;14.88;;;3.65;;
68353;SDS011;55274;43.060;25.618;2023-04-24T08:01:00;12.48;;;3.05;;
68353;SDS011;55274;43.060;25.618;2023-04-24T08:03:26;13.60;;;2.92;;
68353;SDS011;55274;43.060;25.618;2023-04-24T08:05:52;25.75;;;3.80;;
68353;SDS011;55274;43.060;25.618;2023-04-24T08:08:19;17.63;;;3.63;;
68353;SDS011;55274;43.060;25.618;2023-04-24T08:10:46;7.13;;;2.42;;
68353;SDS011;55274;43.060;25.618;2023-04-24T08:13:12;7.10;;;2.72;;
68353;SDS011;55274;43.060;25.618;2023-04-24T08:15:37;73.22;;;6.30;;
68353;SDS011;55274;43.060;25.618;2023-04-24T08:18:03;22.63;;;4.65;;
68353;SDS011;55274;43.060;25.618;2023-04-24T08:20:29;17.80;;;3.58;;
68353;SDS011;55274;43.060;25.618;2023-04-24T08:22:55;10.30;;;3.40;;
68353;SDS011;55274;43.060;25.618;2023-04-24T08:25:21;10.75;;;3.55;;
68353;SDS011;55274;43.060;25.618;2023-04-24T08:27:48;6.43;;;3.17;;
68353;SDS011;55274;43.060;25.618;2023-04-24T08:30:14;3.70;;;2.92;;
68353;SDS011;55274;43.060;25.618;2023-04-24T08:32:40;5.82;;;3.30;;
68353;SDS011;55274;43.060;25.618;2023-04-24T08:35:06;6.93;;;3.30;;
68353;SDS011;55274;43.060;25.618;2023-04-24T08:37:34;22.20;;;4.57;;
68353;SDS011;55274;43.060;25.618;2023-04-24T08:40:01;8.55;;;2.90;;
68353;SDS011;55274;43.060;25.618;2023-04-24T08:42:32;9.43;;;2.60;;
68353;SDS011;55274;43.060;25.618;2023-04-24T08:44:59;9.75;;;3.30;;
68353;SDS011;55274;43.060;25.618;2023-04-24T08:47:25;7.53;;;3.25;;
68353;SDS011;55274;43.060;25.618;2023-04-24T08:49:52;8.35;;;3.30;;
68353;SDS011;55274;43.060;25.618;2023-04-24T08:52:19;11.27;;;3.35;;
68353;SDS011;55274;43.060;25.618;2023-04-24T08:54:47;6.88;;;3.28;;
68353;SDS011;55274;43.060;25.618;2023-04-24T08:57:14;5.65;;;3.03;;
68353;SDS011;55274;43.060;25.618;2023-04-24T08:59:41;35.17;;;5.22;;
68353;SDS011;55274;43.060;25.618;2023-04-24T09:02:10;173.10;;;14.32;;
68353;SDS011;55274;43.060;25.618;2023-04-24T09:04:36;58.40;;;6.93;;
68353;SDS011;55274;43.060;25.618;2023-04-24T09:07:02;186.80;;;18.15;;
68353;SDS011;55274;43.060;25.618;2023-04-24T09:09:30;32.58;;;5.13;;
68353;SDS011;55274;43.060;25.618;2023-04-24T09:11:58;8.60;;;2.70;;
68353;SDS011;55274;43.060;25.618;2023-04-24T09:14:25;17.40;;;3.95;;
68353;SDS011;55274;43.060;25.618;2023-04-24T09:16:53;7.63;;;3.17;;
68353;SDS011;55274;43.060;25.618;2023-04-24T09:19:18;6.93;;;3.38;;
68353;SDS011;55274;43.060;25.618;2023-04-24T09:21:46;5.50;;;3.53;;
68353;SDS011;55274;43.060;25.618;2023-04-24T09:24:16;28.95;;;5.78;;
68353;SDS011;55274;43.060;25.618;2023-04-24T09:26:48;12.75;;;5.15;;
68353;SDS011;55274;43.060;25.618;2023-04-24T09:29:22;8.18;;;3.42;;
68353;SDS011;55274;43.060;25.618;2023-04-24T09:31:47;5.60;;;2.90;;
68353;SDS011;55274;43.060;25.618;2023-04-24T09:34:13;3.70;;;2.65;;
68353;SDS011;55274;43.060;25.618;2023-04-24T09:36:41;15.13;;;3.00;;
68353;SDS011;55274;43.060;25.618;2023-04-24T09:39:08;9.88;;;2.78;;
68353;SDS011;55274;43.060;25.618;2023-04-24T09:44:20;14.15;;;4.05;;
68353;SDS011;55274;43.060;25.618;2023-04-24T09:46:50;4.43;;;2.40;;
68353;SDS011;55274;43.060;25.618;2023-04-24T09:51:50;4.68;;;2.10;;
68353;SDS011;55274;43.060;25.618;2023-04-24T09:54:20;5.50;;;2.70;;
68353;SDS011;55274;43.060;25.618;2023-04-24T09:56:47;7.90;;;2.90;;
68353;SDS011;55274;43.060;25.618;2023-04-24T09:59:14;6.10;;;2.47;;
68353;SDS011;55274;43.060;25.618;2023-04-24T10:01:41;8.20;;;2.88;;
68353;SDS011;55274;43.060;25.618;2023-04-24T10:04:15;25.73;;;6.22;;
68353;SDS011;55274;43.060;25.618;2023-04-24T10:06:49;10.55;;;3.60;;
68353;SDS011;55274;43.060;25.618;2023-04-24T10:09:23;10.57;;;2.72;;
68353;SDS011;55274;43.060;25.618;2023-04-24T10:11:51;6.25;;;2.78;;
68353;SDS011;55274;43.060;25.618;2023-04-24T10:14:19;3.88;;;2.47;;
68353;SDS011;55274;43.060;25.618;2023-04-24T10:16:47;4.03;;;2.45;;
68353;SDS011;55274;43.060;25.618;2023-04-24T10:19:14;13.10;;;3.05;;
68353;SDS011;55274;43.060;25.618;2023-04-24T10:21:41;3.58;;;2.60;;
68353;SDS011;55274;43.060;25.618;2023-04-24T10:26:37;7.53;;;2.42;;
68353;SDS011;55274;43.060;25.618;2023-04-24T10:29:05;12.35;;;3.00;;
68353;SDS011;55274;43.060;25.618;2023-04-24T10:31:36;4.13;;;2.30;;
68353;SDS011;55274;43.060;25.618;2023-04-24T10:34:05;4.78;;;2.60;;
68353;SDS011;55274;43.060;25.618;2023-04-24T10:36:32;6.85;;;2.92;;
68353;SDS011;55274;43.060;25.618;2023-04-24T10:39:01;6.85;;;2.70;;
68353;SDS011;55274;43.060;25.618;2023-04-24T10:41:29;9.07;;;2.70;;
68353;SDS011;55274;43.060;25.618;2023-04-24T10:44:09;14.05;;;3.05;;
68353;SDS011;55274;43.060;25.618;2023-04-24T10:49:07;5.97;;;2.42;;
68353;SDS011;55274;43.060;25.618;2023-04-24T11:02:38;14.55;;;3.03;;
68353;SDS011;55274;43.060;25.618;2023-04-24T11:05:05;7.93;;;2.95;;
68353;SDS011;55274;43.060;25.618;2023-04-24T11:10:39;6.00;;;2.60;;
68353;SDS011;55274;43.060;25.618;2023-04-24T11:13:09;9.15;;;2.25;;
68353;SDS011;55274;43.060;25.618;2023-04-24T11:15:35;6.72;;;2.90;;
68353;SDS011;55274;43.060;25.618;2023-04-24T11:18:01;12.10;;;3.42;;
68353;SDS011;55274;43.060;25.618;2023-04-24T11:20:26;8.30;;;2.55;;
68353;SDS011;55274;43.060;25.618;2023-04-24T11:22:53;10.07;;;2.70;;
68353;SDS011;55274;43.060;25.618;2023-04-24T11:25:20;5.28;;;2.58;;
68353;SDS011;55274;43.060;25.618;2023-04-24T11:27:47;19.58;;;3.35;;
68353;SDS011;55274;43.060;25.618;2023-04-24T11:30:18;7.68;;;2.60;;
68353;SDS011;55274;43.060;25.618;2023-04-24T11:32:50;18.60;;;3.72;;
68353;SDS011;55274;43.060;25.618;2023-04-24T11:35:20;10.25;;;2.70;;
68353;SDS011;55274;43.060;25.618;2023-04-24T11:37:50;17.75;;;3.20;;
68353;SDS011;55274;43.060;25.618;2023-04-24T11:40:20;23.88;;;3.95;;
68353;SDS011;55274;43.060;25.618;2023-04-24T11:42:53;12.52;;;2.88;;
68353;SDS011;55274;43.060;25.618;2023-04-24T11:45:23;57.20;;;5.07;;
68353;SDS011;55274;43.060;25.618;2023-04-24T11:47:50;22.27;;;4.15;;
68353;SDS011;55274;43.060;25.618;2023-04-24T11:50:17;12.95;;;2.60;;
68353;SDS011;55274;43.060;25.618;2023-04-24T11:52:44;3.88;;;2.63;;
68353;SDS011;55274;43.060;25.618;2023-04-24T11:57:44;5.35;;;2.70;;
68353;SDS011;55274;43.060;25.618;2023-04-24T12:00:24;6.97;;;2.70;;
68353;SDS011;55274;43.060;25.618;2023-04-24T12:03:03;5.53;;;2.58;;
68353;SDS011;55274;43.060;25.618;2023-04-24T12:05:31;4.72;;;2.92;;
68353;SDS011;55274;43.060;25.618;2023-04-24T12:07:57;6.38;;;2.33;;
68353;SDS011;55274;43.060;25.618;2023-04-24T12:10:23;6.90;;;2.20;;
68353;SDS011;55274;43.060;25.618;2023-04-24T12:12:50;14.30;;;2.90;;
68353;SDS011;55274;43.060;25.618;2023-04-24T12:15:17;5.35;;;2.10;;
68353;SDS011;55274;43.060;25.618;2023-04-24T12:17:45;23.30;;;3.40;;
68353;SDS011;55274;43.060;25.618;2023-04-24T12:20:11;6.95;;;2.90;;
68353;SDS011;55274;43.060;25.618;2023-04-24T12:25:19;5.07;;;2.42;;
68353;SDS011;55274;43.060;25.618;2023-04-24T12:27:46;5.15;;;2.33;;
68353;SDS011;55274;43.060;25.618;2023-04-24T12:30:17;15.77;;;3.67;;
68353;SDS011;55274;43.060;25.618;2023-04-24T12:32:45;29.65;;;3.42;;
68353;SDS011;55274;43.060;25.618;2023-04-24T12:35:12;17.55;;;3.13;;
68353;SDS011;55274;43.060;25.618;2023-04-24T12:37:41;17.65;;;2.80;;
68353;SDS011;55274;43.060;25.618;2023-04-24T12:40:08;9.77;;;2.50;;
68353;SDS011;55274;43.060;25.618;2023-04-24T12:42:37;17.98;;;4.38;;
68353;SDS011;55274;43.060;25.618;2023-04-24T12:45:08;10.52;;;2.83;;
68353;SDS011;55274;43.060;25.618;2023-04-24T12:47:34;11.85;;;3.28;;
68353;SDS011;55274;43.060;25.618;2023-04-24T12:50:01;9.48;;;3.10;;
68353;SDS011;55274;43.060;25.618;2023-04-24T12:52:28;4.78;;;2.20;;
68353;SDS011;55274;43.060;25.618;2023-04-24T12:54:55;5.22;;;2.25;;
68353;SDS011;55274;43.060;25.618;2023-04-24T12:57:23;126.15;;;9.13;;
68353;SDS011;55274;43.060;25.618;2023-04-24T12:59:49;36.08;;;4.38;;
68353;SDS011;55274;43.060;25.618;2023-04-24T13:02:15;11.38;;;2.50;;
68353;SDS011;55274;43.060;25.618;2023-04-24T13:04:45;6.00;;;1.85;;
68353;SDS011;55274;43.060;25.618;2023-04-24T13:07:12;4.30;;;1.77;;
68353;SDS011;55274;43.060;25.618;2023-04-24T13:09:39;3.92;;;1.70;;
68353;SDS011;55274;43.060;25.618;2023-04-24T13:12:05;16.33;;;3.13;;
68353;SDS011;55274;43.060;25.618;2023-04-24T13:14:32;3.38;;;1.63;;
68353;SDS011;55274;43.060;25.618;2023-04-24T13:16:58;4.75;;;1.75;;
68353;SDS011;55274;43.060;25.618;2023-04-24T13:19:26;4.50;;;1.80;;
68353;SDS011;55274;43.060;25.618;2023-04-24T13:21:53;17.25;;;2.75;;
68353;SDS011;55274;43.060;25.618;2023-04-24T13:24:21;6.80;;;2.70;;
68353;SDS011;55274;43.060;25.618;2023-04-24T13:26:52;11.15;;;2.97;;
68353;SDS011;55274;43.060;25.618;2023-04-24T13:29:18;4.13;;;2.30;;
68353;SDS011;55274;43.060;25.618;2023-04-24T13:31:44;72.20;;;6.28;;
68353;SDS011;55274;43.060;25.618;2023-04-24T13:34:12;15.60;;;3.28;;
68353;SDS011;55274;43.060;25.618;2023-04-24T13:36:38;8.23;;;2.92;;
68353;SDS011;55274;43.060;25.618;2023-04-24T13:39:04;12.23;;;3.30;;
68353;SDS011;55274;43.060;25.618;2023-04-24T13:41:32;24.20;;;4.03;;
68353;SDS011;55274;43.060;25.618;2023-04-24T13:43:58;22.60;;;3.60;;
68353;SDS011;55274;43.060;25.618;2023-04-24T13:46:24;15.75;;;3.42;;
68353;SDS011;55274;43.060;25.618;2023-04-24T13:48:50;11.05;;;3.28;;
68353;SDS011;55274;43.060;25.618;2023-04-24T13:51:16;12.23;;;2.95;;
68353;SDS011;55274;43.060;25.618;2023-04-24T13:53:42;18.55;;;3.80;;
68353;SDS011;55274;43.060;25.618;2023-04-24T13:56:07;12.43;;;3.22;;
68353;SDS011;55274;43.060;25.618;2023-04-24T13:58:34;4.72;;;2.60;;
68353;SDS011;55274;43.060;25.618;2023-04-24T14:01:03;18.40;;;3.83;;
68353;SDS011;55274;43.060;25.618;2023-04-24T14:03:29;6.88;;;2.40;;
68353;SDS011;55274;43.060;25.618;2023-04-24T14:05:55;25.58;;;4.05;;
68353;SDS011;55274;43.060;25.618;2023-04-24T14:08:21;17.05;;;3.47;;
68353;SDS011;55274;43.060;25.618;2023-04-24T14:10:47;18.55;;;3.22;;
68353;SDS011;55274;43.060;25.618;2023-04-24T14:13:13;9.15;;;2.95;;
68353;SDS011;55274;43.060;25.618;2023-04-24T14:15:39;10.27;;;3.58;;
68353;SDS011;55274;43.060;25.618;2023-04-24T14:18:05;11.75;;;2.97;;
68353;SDS011;55274;43.060;25.618;2023-04-24T14:20:31;20.90;;;3.80;;
68353;SDS011;55274;43.060;25.618;2023-04-24T14:22:57;15.32;;;3.13;;
68353;SDS011;55274;43.060;25.618;2023-04-24T14:25:25;9.82;;;2.60;;
68353;SDS011;55274;43.060;25.618;2023-04-24T14:27:51;7.70;;;2.72;;
68353;SDS011;55274;43.060;25.618;2023-04-24T14:30:17;5.38;;;2.53;;
68353;SDS011;55274;43.060;25.618;2023-04-24T14:32:43;5.13;;;2.60;;
68353;SDS011;55274;43.060;25.618;2023-04-24T14:35:09;6.53;;;2.97;;
68353;SDS011;55274;43.060;25.618;2023-04-24T14:37:35;19.17;;;4.57;;
68353;SDS011;55274;43.060;25.618;2023-04-24T14:40:02;14.23;;;3.50;;
68353;SDS011;55274;43.060;25.618;2023-04-24T14:42:30;9.38;;;2.92;;
68353;SDS011;55274;43.060;25.618;2023-04-24T14:44:56;20.75;;;4.72;;
68353;SDS011;55274;43.060;25.618;2023-04-24T14:47:21;11.65;;;3.90;;
68353;SDS011;55274;43.060;25.618;2023-04-24T14:49:50;17.27;;;3.65;;
68353;SDS011;55274;43.060;25.618;2023-04-24T14:52:16;7.55;;;3.17;;